createdAt,value
2023-08-24T00:01:51.243Z,19.70
2023-08-24T00:04:19.270Z,19.60
2023-08-24T00:06:46.321Z,19.60
2023-08-24T00:09:14.473Z,19.60
2023-08-24T00:11:42.569Z,19.50
2023-08-24T00:14:11.217Z,19.50
2023-08-24T00:16:39.634Z,19.50
2023-08-24T00:19:09.062Z,19.50
2023-08-24T00:21:37.085Z,19.50
2023-08-24T00:24:07.082Z,19.50
2023-08-24T00:26:39.932Z,19.40
2023-08-24T00:29:07.955Z,19.40
2023-08-24T00:31:35.973Z,19.30
2023-08-24T00:34:04.144Z,19.30
2023-08-24T00:36:33.663Z,19.20
2023-08-24T00:39:01.816Z,19.20
2023-08-24T00:41:29.826Z,19.20
2023-08-24T00:43:58.337Z,19.20
2023-08-24T00:46:29.088Z,19.20
2023-08-24T00:48:58.776Z,19.30
2023-08-24T00:51:27.057Z,19.30
2023-08-24T00:53:58.506Z,19.20
2023-08-24T00:56:26.650Z,19.20
2023-08-24T00:58:56.655Z,19.10
2023-08-24T01:01:25.705Z,19.10
2023-08-24T01:03:53.949Z,19.00
2023-08-24T01:06:21.916Z,19.00
2023-08-24T01:08:50.180Z,19.00
2023-08-24T01:11:30.182Z,19.00
2023-08-24T01:14:06.474Z,19.00
2023-08-24T01:16:41.562Z,19.00
2023-08-24T01:19:27.661Z,19.00
2023-08-24T01:21:57.672Z,18.90
2023-08-24T01:24:38.453Z,18.90
2023-08-24T01:27:08.271Z,18.90
2023-08-24T01:29:36.310Z,18.90
2023-08-24T01:32:04.577Z,18.90
2023-08-24T01:34:32.534Z,18.90
2023-08-24T01:37:01.125Z,18.90
2023-08-24T01:39:32.425Z,18.90
2023-08-24T01:42:06.716Z,19.00
2023-08-24T01:44:39.712Z,19.00
2023-08-24T01:47:12.962Z,19.00
2023-08-24T01:49:42.592Z,19.00
2023-08-24T01:52:12.321Z,19.00
2023-08-24T01:54:40.809Z,19.00
2023-08-24T01:57:08.986Z,19.00
2023-08-24T01:59:38.485Z,19.00
2023-08-24T02:02:06.770Z,19.00
2023-08-24T02:04:34.795Z,19.00
2023-08-24T02:07:02.880Z,19.00
2023-08-24T02:09:31.328Z,19.00
2023-08-24T02:11:59.369Z,19.00
2023-08-24T02:14:27.436Z,18.90
2023-08-24T02:16:56.814Z,18.90
2023-08-24T02:19:24.857Z,18.80
2023-08-24T02:21:52.910Z,18.80
2023-08-24T02:24:20.986Z,18.80
2023-08-24T02:26:49.049Z,18.70
2023-08-24T02:29:17.081Z,18.60
2023-08-24T02:31:45.174Z,18.60
2023-08-24T02:34:14.591Z,18.60
2023-08-24T02:36:42.582Z,18.70
2023-08-24T02:39:11.234Z,18.70
2023-08-24T02:41:39.316Z,18.80
2023-08-24T02:44:07.591Z,18.80
2023-08-24T02:46:35.698Z,18.80
2023-08-24T02:49:03.792Z,18.80
2023-08-24T02:51:33.545Z,18.80
2023-08-24T02:54:01.544Z,18.70
2023-08-24T02:56:29.574Z,18.70
2023-08-24T02:58:57.614Z,18.60
2023-08-24T03:01:25.686Z,18.60
2023-08-24T03:03:53.777Z,18.60
2023-08-24T03:06:21.793Z,18.60
2023-08-24T03:08:51.161Z,18.60
2023-08-24T03:11:19.216Z,18.60
2023-08-24T03:13:47.244Z,18.60
2023-08-24T03:16:15.347Z,18.50
2023-08-24T03:18:43.451Z,18.50
2023-08-24T03:21:11.994Z,18.50
2023-08-24T03:23:40.130Z,18.50
2023-08-24T03:26:09.470Z,18.60
2023-08-24T03:28:38.167Z,18.50
2023-08-24T03:31:08.434Z,18.50
2023-08-24T03:33:36.670Z,18.40
2023-08-24T03:36:05.359Z,18.40
2023-08-24T03:38:33.989Z,18.40
2023-08-24T03:41:03.942Z,18.40
2023-08-24T03:43:35.556Z,18.40
2023-08-24T03:46:05.070Z,18.50
2023-08-24T03:48:33.407Z,18.50
2023-08-24T03:51:01.914Z,18.50
2023-08-24T03:53:29.944Z,18.50
2023-08-24T03:55:57.927Z,18.40
2023-08-24T03:58:26.065Z,18.50
2023-08-24T04:00:56.505Z,18.50
2023-08-24T04:03:24.698Z,18.50
2023-08-24T04:05:52.789Z,18.50
2023-08-24T04:08:20.815Z,18.50
2023-08-24T04:10:48.849Z,18.50
2023-08-24T04:13:16.844Z,18.60
2023-08-24T04:15:44.893Z,18.60
2023-08-24T04:18:14.294Z,18.60
2023-08-24T04:20:42.365Z,18.60
2023-08-24T04:23:11.320Z,18.70
2023-08-24T04:25:42.097Z,18.60
2023-08-24T04:28:18.973Z,18.70
2023-08-24T04:30:52.497Z,18.60
2023-08-24T04:33:22.088Z,18.60
2023-08-24T04:35:51.328Z,18.70
2023-08-24T04:38:21.004Z,18.70
2023-08-24T04:40:52.969Z,18.70
2023-08-24T04:43:22.252Z,18.80
2023-08-24T04:45:53.552Z,18.80
2023-08-24T04:48:23.538Z,18.80
2023-08-24T04:50:52.064Z,18.80
2023-08-24T04:53:21.106Z,18.80
2023-08-24T04:55:49.162Z,18.80
2023-08-24T04:58:17.271Z,18.80
2023-08-24T05:00:45.540Z,18.80
2023-08-24T05:03:14.686Z,18.80
2023-08-24T05:05:44.128Z,19.00
2023-08-24T05:08:13.404Z,19.00
2023-08-24T05:10:42.209Z,19.10
2023-08-24T05:13:10.270Z,19.10
2023-08-24T05:15:38.373Z,19.10
2023-08-24T05:18:06.623Z,19.10
2023-08-24T05:20:34.737Z,19.20
2023-08-24T05:23:04.196Z,19.20
2023-08-24T05:25:32.418Z,19.20
2023-08-24T05:28:00.453Z,19.20
2023-08-24T05:30:30.415Z,19.20
2023-08-24T05:32:58.729Z,19.20
2023-08-24T05:35:28.609Z,19.30
2023-08-24T05:37:56.735Z,19.40
2023-08-24T05:40:26.118Z,19.50
2023-08-24T05:42:54.519Z,19.60
2023-08-24T05:45:24.754Z,19.70
2023-08-24T05:47:54.921Z,19.90
2023-08-24T05:50:23.298Z,20.00
2023-08-24T05:52:51.310Z,20.20
2023-08-24T05:55:19.519Z,20.40
2023-08-24T05:57:49.455Z,20.40
2023-08-24T06:00:18.553Z,20.50
2023-08-24T06:02:46.621Z,20.60
2023-08-24T06:05:14.741Z,20.60
2023-08-24T06:07:42.799Z,20.70
2023-08-24T06:10:11.932Z,20.70
2023-08-24T06:12:40.145Z,20.70
2023-08-24T06:15:11.889Z,20.70
2023-08-24T06:17:40.040Z,20.70
2023-08-24T06:20:11.535Z,20.70
2023-08-24T06:22:40.001Z,20.70
2023-08-24T06:25:09.892Z,20.80
2023-08-24T06:27:38.128Z,20.80
2023-08-24T06:30:07.449Z,20.80
2023-08-24T06:32:38.063Z,20.90
2023-08-24T06:35:07.725Z,20.90
2023-08-24T06:37:35.758Z,20.90
2023-08-24T06:40:05.723Z,20.90
2023-08-24T06:42:33.769Z,21.00
2023-08-24T06:45:01.778Z,21.00
2023-08-24T06:47:29.787Z,21.00
2023-08-24T06:49:59.183Z,21.10
2023-08-24T06:52:27.191Z,21.10
2023-08-24T06:54:57.292Z,21.20
2023-08-24T06:57:25.421Z,21.30
2023-08-24T06:59:53.919Z,21.50
2023-08-24T07:02:22.012Z,21.70
2023-08-24T07:04:50.303Z,21.90
2023-08-24T07:07:19.676Z,22.20
2023-08-24T07:09:47.648Z,22.80
2023-08-24T07:12:15.642Z,23.30
2023-08-24T07:14:43.636Z,23.50
2023-08-24T07:17:11.998Z,23.60
2023-08-24T07:19:40.125Z,23.60
2023-08-24T07:22:09.345Z,23.90
2023-08-24T07:24:45.206Z,24.40
2023-08-24T07:27:14.286Z,25.20
2023-08-24T07:29:42.487Z,25.90
2023-08-24T07:32:10.725Z,26.50
2023-08-24T07:34:38.866Z,27.00
2023-08-24T07:37:06.949Z,27.50
2023-08-24T07:39:35.008Z,27.80
2023-08-24T07:42:04.523Z,28.20
2023-08-24T07:44:32.574Z,28.40
2023-08-24T07:47:00.596Z,28.80
2023-08-24T07:49:28.668Z,29.00
2023-08-24T07:51:58.325Z,29.30
2023-08-24T07:54:26.684Z,29.40
2023-08-24T07:56:54.736Z,29.70
2023-08-24T07:59:24.127Z,29.90
2023-08-24T08:01:52.233Z,30.20
2023-08-24T08:04:20.261Z,30.40
2023-08-24T08:06:48.570Z,30.70
2023-08-24T08:09:17.644Z,31.00
2023-08-24T08:11:46.831Z,31.20
2023-08-24T08:14:14.869Z,31.40
2023-08-24T08:16:44.373Z,31.60
2023-08-24T08:19:12.396Z,31.80
2023-08-24T08:21:40.395Z,31.70
2023-08-24T08:24:08.697Z,31.80
2023-08-24T08:26:36.792Z,31.90
2023-08-24T08:29:04.865Z,31.90
2023-08-24T08:31:32.983Z,32.00
2023-08-24T08:34:02.508Z,32.10
2023-08-24T08:36:30.549Z,32.30
2023-08-24T08:38:58.538Z,32.20
2023-08-24T08:41:32.682Z,32.10
2023-08-24T08:44:01.970Z,32.20
2023-08-24T08:46:30.222Z,32.30
2023-08-24T08:48:59.100Z,32.50
2023-08-24T08:51:29.566Z,32.70
2023-08-24T08:53:57.622Z,32.70
2023-08-24T08:56:25.779Z,32.90
2023-08-24T08:58:56.139Z,32.90
2023-08-24T09:01:25.768Z,32.70
2023-08-24T09:03:54.650Z,32.80
2023-08-24T09:06:23.807Z,32.50
2023-08-24T09:08:54.675Z,32.40
2023-08-24T09:11:22.992Z,32.40
2023-08-24T09:13:51.048Z,32.10
2023-08-24T09:16:19.843Z,32.10
2023-08-24T09:18:49.106Z,32.20
2023-08-24T09:21:17.897Z,32.20
2023-08-24T09:23:47.465Z,32.30
2023-08-24T09:26:16.901Z,32.30
2023-08-24T09:28:46.144Z,32.30
2023-08-24T09:31:14.816Z,32.30
2023-08-24T09:33:46.997Z,32.30
2023-08-24T09:36:16.576Z,32.50
2023-08-24T09:38:49.915Z,32.50
2023-08-24T09:41:19.399Z,32.40
2023-08-24T09:43:47.405Z,32.00
2023-08-24T09:46:22.027Z,31.60
2023-08-24T09:48:57.736Z,31.30
2023-08-24T09:51:28.303Z,31.10
2023-08-24T09:54:00.893Z,31.20
2023-08-24T09:56:31.526Z,31.20
2023-08-24T09:59:05.177Z,31.10
2023-08-24T10:01:33.784Z,31.20
2023-08-24T10:04:02.307Z,31.10
2023-08-24T10:06:30.916Z,31.10
2023-08-24T10:11:38.989Z,31.30
2023-08-24T10:14:12.831Z,31.30
2023-08-24T10:16:42.012Z,31.30
2023-08-24T10:19:10.528Z,31.30
2023-08-24T10:21:40.537Z,31.30
2023-08-24T10:24:10.341Z,31.30
2023-08-24T10:26:41.729Z,31.40
2023-08-24T10:29:09.952Z,31.40
2023-08-24T10:31:39.378Z,31.60
2023-08-24T10:34:09.090Z,31.60
2023-08-24T10:36:37.297Z,31.70
2023-08-24T10:39:07.641Z,31.80
2023-08-24T10:41:54.155Z,31.80
2023-08-24T10:44:23.922Z,31.90
2023-08-24T10:47:14.599Z,32.00
2023-08-24T10:49:43.028Z,32.00
2023-08-24T10:52:24.543Z,32.20
2023-08-24T10:54:54.424Z,32.20
2023-08-24T10:57:25.211Z,32.30
2023-08-24T11:00:07.122Z,32.30
2023-08-24T11:02:46.209Z,32.20
2023-08-24T11:05:20.447Z,32.20
2023-08-24T11:07:53.315Z,32.30
2023-08-24T11:10:22.638Z,32.40
2023-08-24T11:13:14.404Z,32.50
2023-08-24T11:15:44.149Z,32.50
2023-08-24T11:18:26.455Z,32.60
2023-08-24T11:20:57.483Z,32.90
2023-08-24T11:23:27.527Z,33.20
2023-08-24T11:25:58.201Z,33.40
2023-08-24T11:28:29.119Z,33.50
2023-08-24T11:30:58.104Z,33.60
2023-08-24T11:33:31.190Z,33.80
2023-08-24T11:36:00.240Z,34.00
2023-08-24T11:38:39.424Z,34.10
2023-08-24T11:41:17.645Z,34.20
2023-08-24T11:43:48.894Z,34.20
2023-08-24T11:46:18.523Z,34.10
2023-08-24T11:48:47.551Z,33.90
2023-08-24T11:51:20.957Z,33.70
2023-08-24T11:53:54.473Z,33.50
2023-08-24T11:56:22.747Z,33.20
2023-08-24T11:58:52.987Z,33.10
2023-08-24T12:01:21.340Z,33.20
2023-08-24T12:03:49.652Z,33.30
2023-08-24T12:06:18.648Z,33.40
2023-08-24T12:08:48.597Z,33.40
2023-08-24T12:11:18.209Z,33.30
2023-08-24T12:13:47.804Z,33.10
2023-08-24T12:16:18.006Z,32.90
2023-08-24T12:18:51.835Z,33.00
2023-08-24T12:21:20.668Z,33.10
2023-08-24T12:23:58.157Z,33.20
2023-08-24T12:26:26.266Z,33.30
2023-08-24T12:28:54.652Z,33.40
2023-08-24T12:31:28.898Z,33.40
2023-08-24T12:34:02.067Z,33.50
2023-08-24T12:36:30.076Z,33.50
2023-08-24T12:38:58.141Z,33.50
2023-08-24T12:41:26.227Z,33.60
2023-08-24T12:43:54.278Z,33.70
2023-08-24T12:46:23.812Z,33.60
2023-08-24T12:48:55.123Z,33.60
2023-08-24T12:51:25.227Z,33.70
2023-08-24T12:53:53.341Z,33.90
2023-08-24T12:56:21.367Z,34.00
2023-08-24T12:58:49.411Z,33.90
2023-08-24T13:01:18.162Z,33.90
2023-08-24T13:03:47.678Z,34.10
2023-08-24T13:06:24.387Z,34.10
2023-08-24T13:08:54.542Z,34.10
2023-08-24T13:11:23.854Z,34.40
2023-08-24T13:13:52.297Z,34.60
2023-08-24T13:16:20.360Z,34.70
2023-08-24T13:18:49.880Z,34.80
2023-08-24T13:21:18.797Z,35.00
2023-08-24T13:23:48.194Z,35.30
2023-08-24T13:26:21.401Z,35.40
2023-08-24T13:28:49.994Z,35.60
2023-08-24T13:31:18.379Z,35.70
2023-08-24T13:33:47.105Z,35.70
2023-08-24T13:36:16.660Z,35.80
2023-08-24T13:38:45.938Z,35.80
2023-08-24T13:41:13.954Z,35.80
2023-08-24T13:43:43.118Z,35.80
2023-08-24T13:46:11.377Z,35.80
2023-08-24T13:48:40.177Z,35.70
2023-08-24T13:51:09.322Z,35.60
2023-08-24T13:53:38.901Z,35.60
2023-08-24T13:56:07.493Z,35.50
2023-08-24T13:58:35.584Z,35.40
2023-08-24T14:01:04.931Z,35.40
2023-08-24T14:03:36.085Z,35.30
2023-08-24T14:06:04.204Z,35.20
2023-08-24T14:08:32.403Z,35.10
2023-08-24T14:11:01.842Z,35.00
2023-08-24T14:13:29.877Z,34.80
2023-08-24T14:15:58.390Z,34.60
2023-08-24T14:18:26.550Z,34.50
2023-08-24T14:20:54.686Z,34.30
2023-08-24T14:23:22.715Z,34.20
2023-08-24T14:25:50.861Z,34.10
2023-08-24T14:28:23.331Z,33.90
2023-08-24T14:30:51.570Z,33.70
2023-08-24T14:33:20.084Z,33.50
2023-08-24T14:35:54.698Z,33.40
2023-08-24T14:38:22.822Z,33.20
2023-08-24T14:40:50.901Z,33.00
2023-08-24T14:43:20.952Z,32.70
2023-08-24T14:45:49.148Z,32.10
2023-08-24T14:48:17.694Z,31.30
2023-08-24T14:50:45.803Z,30.40
2023-08-24T14:53:13.964Z,29.70
2023-08-24T14:55:42.049Z,29.10
2023-08-24T14:58:10.276Z,28.50
2023-08-24T15:00:39.691Z,28.20
2023-08-24T15:03:07.781Z,27.90
2023-08-24T15:05:41.493Z,27.50
2023-08-24T15:08:09.573Z,27.30
2023-08-24T15:10:37.623Z,27.00
2023-08-24T15:13:05.999Z,26.80
2023-08-24T15:15:36.835Z,26.70
2023-08-24T15:18:06.769Z,26.60
2023-08-24T15:20:35.132Z,26.50
2023-08-24T15:23:03.198Z,26.60
2023-08-24T15:25:31.206Z,26.70
2023-08-24T15:27:59.230Z,26.80
2023-08-24T15:30:27.287Z,26.80
2023-08-24T15:32:55.384Z,26.80
2023-08-24T15:35:24.792Z,26.70
2023-08-24T15:37:53.032Z,26.70
2023-08-24T15:40:21.295Z,26.60
2023-08-24T15:42:49.317Z,26.60
2023-08-24T15:45:17.759Z,26.60
2023-08-24T15:47:45.859Z,26.50
2023-08-24T15:50:13.958Z,26.50
2023-08-24T15:52:43.344Z,26.50
2023-08-24T15:55:11.395Z,26.60
2023-08-24T15:57:39.698Z,26.50
2023-08-24T16:00:11.510Z,26.50
2023-08-24T16:02:40.285Z,26.50
2023-08-24T16:05:09.022Z,26.60
2023-08-24T16:07:37.142Z,26.60
2023-08-24T16:10:08.271Z,26.60
2023-08-24T16:12:36.416Z,26.50
2023-08-24T16:15:05.148Z,26.50
2023-08-24T16:17:33.946Z,26.60
2023-08-24T16:20:08.051Z,26.70
2023-08-24T16:22:36.949Z,26.80
2023-08-24T16:25:07.262Z,26.80
2023-08-24T16:27:35.840Z,26.80
2023-08-24T16:30:04.785Z,26.80
2023-08-24T16:32:33.489Z,26.80
2023-08-24T16:35:01.679Z,26.80
2023-08-24T16:37:31.107Z,26.70
2023-08-24T16:40:00.668Z,26.50
2023-08-24T16:42:30.427Z,26.40
2023-08-24T16:44:58.475Z,26.20
2023-08-24T16:47:26.598Z,26.10
2023-08-24T16:49:54.694Z,26.20
2023-08-24T16:52:22.725Z,26.20
2023-08-24T16:54:53.137Z,26.30
2023-08-24T16:57:21.198Z,26.30
2023-08-24T16:59:52.221Z,26.20
2023-08-24T17:02:23.312Z,26.30
2023-08-24T17:04:54.832Z,26.20
2023-08-24T17:07:25.670Z,26.20
2023-08-24T17:09:53.714Z,26.20
2023-08-24T17:12:21.762Z,26.20
2023-08-24T17:14:51.937Z,26.10
2023-08-24T17:17:21.385Z,26.00
2023-08-24T17:19:49.500Z,25.90
2023-08-24T17:22:20.918Z,25.90
2023-08-24T17:24:50.979Z,25.80
2023-08-24T17:27:19.001Z,25.80
2023-08-24T17:29:48.843Z,25.80
2023-08-24T17:32:18.757Z,25.80
2023-08-24T17:34:52.676Z,25.80
2023-08-24T17:37:20.825Z,25.80
2023-08-24T17:39:48.943Z,25.80
2023-08-24T17:42:16.994Z,25.70
2023-08-24T17:44:45.316Z,25.70
2023-08-24T17:47:13.424Z,25.70
2023-08-24T17:49:41.800Z,25.60
2023-08-24T17:52:11.211Z,25.50
2023-08-24T17:54:39.255Z,25.40
2023-08-24T17:57:07.349Z,25.40
2023-08-24T17:59:35.524Z,25.30
2023-08-24T18:02:04.014Z,25.30
2023-08-24T18:04:32.146Z,25.20
2023-08-24T18:07:00.237Z,25.00
2023-08-24T18:09:29.979Z,24.90
2023-08-24T18:11:58.213Z,24.80
2023-08-24T18:14:26.274Z,24.70
2023-08-24T18:16:54.351Z,24.60
2023-08-24T18:19:22.396Z,24.60
2023-08-24T18:21:50.435Z,24.60
2023-08-24T18:24:18.461Z,24.60
2023-08-24T18:26:47.932Z,24.60
2023-08-24T18:29:15.947Z,24.60
2023-08-24T18:31:44.056Z,24.50
2023-08-24T18:34:12.111Z,24.60
2023-08-24T18:36:40.204Z,24.50
2023-08-24T18:39:10.035Z,24.60
2023-08-24T18:41:38.128Z,24.50
2023-08-24T18:44:07.547Z,24.60
2023-08-24T18:46:35.727Z,24.50
2023-08-24T18:49:04.291Z,24.40
2023-08-24T18:51:32.329Z,24.40
2023-08-24T18:54:00.344Z,24.30
2023-08-24T18:56:28.404Z,24.20
2023-08-24T18:58:56.510Z,24.20
2023-08-24T19:01:25.938Z,24.20
2023-08-24T19:03:54.183Z,24.20
2023-08-24T19:06:26.543Z,24.10
2023-08-24T19:08:57.395Z,24.10
2023-08-24T19:11:25.572Z,24.10
2023-08-24T19:13:54.003Z,24.10
2023-08-24T19:16:22.138Z,24.10
2023-08-24T19:18:51.709Z,24.20
2023-08-24T19:21:20.122Z,24.10
2023-08-24T19:23:48.166Z,24.10
2023-08-24T19:26:16.196Z,23.90
2023-08-24T19:28:46.684Z,23.70
2023-08-24T19:31:14.956Z,23.70
2023-08-24T19:33:43.099Z,23.70
2023-08-24T19:36:12.562Z,23.70
2023-08-24T19:38:40.596Z,23.70
2023-08-24T19:41:08.680Z,23.70
2023-08-24T19:43:36.713Z,23.80
2023-08-24T19:46:04.853Z,23.80
2023-08-24T19:48:33.211Z,23.80
2023-08-24T19:51:01.724Z,23.70
2023-08-24T19:53:31.089Z,23.70
2023-08-24T19:55:59.155Z,23.70
2023-08-24T19:58:27.191Z,23.70
2023-08-24T20:00:56.279Z,23.60
2023-08-24T20:03:24.562Z,23.60
2023-08-24T20:05:56.296Z,23.60
2023-08-24T20:08:24.506Z,23.50
2023-08-24T20:10:54.012Z,23.50
2023-08-24T20:13:22.169Z,23.50
2023-08-24T20:15:50.667Z,23.50
2023-08-24T20:18:19.260Z,23.50
2023-08-24T20:20:47.301Z,23.50
2023-08-24T20:23:15.333Z,23.50
2023-08-24T20:25:43.323Z,23.50
2023-08-24T20:28:12.734Z,23.50
2023-08-24T20:30:40.838Z,23.50
2023-08-24T20:33:08.991Z,23.50
2023-08-24T20:35:37.060Z,23.50
2023-08-24T20:38:05.484Z,23.50
2023-08-24T20:40:33.485Z,23.60
2023-08-24T20:43:01.575Z,23.50
2023-08-24T20:45:31.282Z,23.50
2023-08-24T20:47:59.385Z,23.50
2023-08-24T20:50:27.663Z,23.50
2023-08-24T20:52:55.702Z,23.50
2023-08-24T20:55:24.174Z,23.40
2023-08-24T20:57:52.719Z,23.30
2023-08-24T21:00:21.185Z,23.30
2023-08-24T21:02:50.644Z,23.20
2023-08-24T21:05:19.051Z,23.20
2023-08-24T21:07:47.143Z,23.10
2023-08-24T21:10:15.856Z,23.10
2023-08-24T21:12:43.914Z,23.00
2023-08-24T21:15:12.253Z,23.00
2023-08-24T21:17:40.364Z,23.00
2023-08-24T21:20:10.912Z,22.90
2023-08-24T21:22:39.615Z,22.90
2023-08-24T21:25:08.306Z,22.90
2023-08-24T21:27:36.337Z,22.80
2023-08-24T21:30:04.843Z,22.80
2023-08-24T21:32:35.247Z,22.80
2023-08-24T21:35:04.872Z,22.80
2023-08-24T21:37:34.526Z,22.80
2023-08-24T21:40:03.216Z,22.70
2023-08-24T21:42:31.584Z,22.70
2023-08-24T21:44:59.643Z,22.70
2023-08-24T21:47:28.893Z,22.70
2023-08-24T21:49:56.991Z,22.70
2023-08-24T21:52:25.110Z,22.70
2023-08-24T21:54:54.501Z,22.60
2023-08-24T21:57:23.694Z,22.60
2023-08-24T21:59:51.865Z,22.50
2023-08-24T22:02:19.910Z,22.50
2023-08-24T22:04:48.322Z,22.50
2023-08-24T22:07:16.554Z,22.40
2023-08-24T22:09:44.641Z,22.50
2023-08-24T22:12:13.984Z,22.50
2023-08-24T22:14:42.045Z,22.50
2023-08-24T22:17:12.089Z,22.50
2023-08-24T22:19:40.231Z,22.40
2023-08-24T22:22:09.121Z,22.40
2023-08-24T22:24:37.294Z,22.40
2023-08-24T22:27:06.868Z,22.40
2023-08-24T22:29:36.417Z,22.40
2023-08-24T22:32:10.321Z,22.40
2023-08-24T22:34:38.485Z,22.40
2023-08-24T22:37:07.585Z,22.30
2023-08-24T22:39:35.658Z,22.40
2023-08-24T22:42:03.872Z,22.30
2023-08-24T22:44:31.889Z,22.30
2023-08-24T22:47:01.282Z,22.20
2023-08-24T22:49:29.330Z,22.10
2023-08-24T22:51:57.374Z,22.20
2023-08-24T22:54:25.811Z,22.20
2023-08-24T22:56:53.878Z,22.10
2023-08-24T22:59:21.945Z,22.10
2023-08-24T23:01:50.074Z,22.10
2023-08-24T23:04:19.546Z,22.10
2023-08-24T23:06:51.030Z,22.10
2023-08-24T23:09:20.439Z,22.20
2023-08-24T23:11:48.724Z,22.20
2023-08-24T23:14:16.794Z,22.10
2023-08-24T23:16:44.889Z,22.10
2023-08-24T23:19:13.023Z,22.10
2023-08-24T23:21:42.483Z,22.10
2023-08-24T23:24:35.581Z,22.20
2023-08-24T23:26:58.643Z,22.20
2023-08-24T23:29:26.863Z,22.10
2023-08-24T23:31:54.939Z,22.10
2023-08-24T23:34:23.009Z,22.10
2023-08-24T23:36:52.378Z,22.10
2023-08-24T23:39:20.836Z,22.10
2023-08-24T23:41:48.863Z,22.10
2023-08-24T23:44:16.898Z,22.10
2023-08-24T23:46:44.939Z,22.10
2023-08-24T23:49:12.997Z,22.10
2023-08-24T23:51:41.068Z,22.10
2023-08-24T23:54:10.704Z,22.10
2023-08-24T23:56:38.731Z,22.10
2023-08-24T23:59:06.745Z,22.10
